createdAt,value
2018-11-23T00:02:03.608Z,-0.60
2018-11-23T00:04:31.964Z,-0.60
2018-11-23T00:07:00.351Z,-0.60
2018-11-23T00:09:28.700Z,-0.60
2018-11-23T00:11:57.076Z,-0.60
2018-11-23T00:14:25.429Z,-0.60
2018-11-23T00:16:53.776Z,-0.70
2018-11-23T00:19:22.136Z,-0.70
2018-11-23T00:21:50.514Z,-0.70
2018-11-23T00:24:18.884Z,-0.70
2018-11-23T00:26:47.222Z,-0.70
2018-11-23T00:29:15.562Z,-0.80
2018-11-23T00:31:43.945Z,-0.70
2018-11-23T00:34:12.270Z,-0.80
2018-11-23T00:36:40.610Z,-0.80
2018-11-23T00:39:08.994Z,-0.80
2018-11-23T00:41:37.357Z,-0.80
2018-11-23T00:44:06.172Z,-0.80
2018-11-23T00:46:34.537Z,-0.80
2018-11-23T00:49:02.882Z,-0.80
2018-11-23T00:51:31.229Z,-0.80
2018-11-23T00:53:59.560Z,-0.80
2018-11-23T00:56:27.935Z,-0.80
2018-11-23T00:58:56.277Z,-0.80
2018-11-23T01:01:24.681Z,-0.90
2018-11-23T01:03:53.101Z,-0.90
2018-11-23T01:06:21.477Z,-0.90
2018-11-23T01:08:49.820Z,-0.90
2018-11-23T01:11:18.167Z,-0.90
2018-11-23T01:13:46.512Z,-0.90
2018-11-23T01:16:14.842Z,-0.90
2018-11-23T01:18:43.220Z,-1.00
2018-11-23T01:21:11.599Z,-1.00
2018-11-23T01:26:14.633Z,-1.00
2018-11-23T01:28:43.006Z,-1.00
2018-11-23T01:31:11.395Z,-1.00
2018-11-23T01:33:39.749Z,-1.00
2018-11-23T01:36:08.082Z,-1.00
2018-11-23T01:38:36.448Z,-1.00
2018-11-23T01:41:05.030Z,-1.00
2018-11-23T01:43:33.372Z,-1.10
2018-11-23T01:46:01.790Z,-1.10
2018-11-23T01:48:30.108Z,-1.10
2018-11-23T01:50:58.533Z,-1.10
2018-11-23T01:53:26.944Z,-1.10
2018-11-23T01:55:55.292Z,-1.10
2018-11-23T01:58:23.611Z,-1.10
2018-11-23T02:00:52.054Z,-1.10
2018-11-23T02:03:20.395Z,-1.10
2018-11-23T02:05:48.779Z,-1.10
2018-11-23T02:08:17.141Z,-1.20
2018-11-23T02:10:45.504Z,-1.20
2018-11-23T02:13:13.901Z,-1.20
2018-11-23T02:15:42.283Z,-1.20
2018-11-23T02:18:10.648Z,-1.20
2018-11-23T02:20:38.991Z,-1.20
2018-11-23T02:23:07.351Z,-1.20
2018-11-23T02:25:35.721Z,-1.30
2018-11-23T02:28:04.174Z,-1.20
2018-11-23T02:30:33.029Z,-1.30
2018-11-23T02:33:01.376Z,-1.30
2018-11-23T02:35:29.708Z,-1.30
2018-11-23T02:37:59.100Z,-1.40
2018-11-23T02:40:27.576Z,-1.30
2018-11-23T02:42:55.889Z,-1.40
2018-11-23T02:45:24.365Z,-1.40
2018-11-23T02:47:53.020Z,-1.40
2018-11-23T02:50:21.382Z,-1.40
2018-11-23T02:52:50.593Z,-1.40
2018-11-23T02:55:19.813Z,-1.40
2018-11-23T02:57:48.169Z,-1.40
2018-11-23T03:00:18.397Z,-1.40
2018-11-23T03:02:46.767Z,-1.40
2018-11-23T03:05:17.077Z,-1.40
2018-11-23T03:07:45.454Z,-1.40
2018-11-23T03:10:14.759Z,-1.40
2018-11-23T03:12:43.874Z,-1.40
2018-11-23T03:15:14.285Z,-1.40
2018-11-23T03:17:43.406Z,-1.40
2018-11-23T03:20:14.946Z,-1.40
2018-11-23T03:22:43.320Z,-1.40
2018-11-23T03:25:12.126Z,-1.40
2018-11-23T03:27:40.472Z,-1.50
2018-11-23T03:30:13.284Z,-1.50
2018-11-23T03:32:41.661Z,-1.50
2018-11-23T03:35:10.086Z,-1.50
2018-11-23T03:37:38.519Z,-1.50
2018-11-23T03:40:07.014Z,-1.50
2018-11-23T03:42:35.379Z,-1.50
2018-11-23T03:45:04.553Z,-1.60
2018-11-23T03:47:33.058Z,-1.50
2018-11-23T03:50:01.394Z,-1.60
2018-11-23T03:52:30.220Z,-1.60
2018-11-23T03:54:58.573Z,-1.60
2018-11-23T03:57:30.060Z,-1.60
2018-11-23T03:59:58.465Z,-1.60
2018-11-23T04:02:27.402Z,-1.60
2018-11-23T04:04:56.004Z,-1.60
2018-11-23T04:07:24.914Z,-1.60
2018-11-23T04:09:53.492Z,-1.60
2018-11-23T04:12:21.888Z,-1.60
2018-11-23T04:14:50.219Z,-1.70
2018-11-23T04:17:18.546Z,-1.70
2018-11-23T04:19:46.897Z,-1.70
2018-11-23T04:22:15.276Z,-1.70
2018-11-23T04:24:43.631Z,-1.70
2018-11-23T04:27:12.094Z,-1.70
2018-11-23T04:29:40.485Z,-1.70
2018-11-23T04:32:08.830Z,-1.70
2018-11-23T04:34:39.008Z,-1.80
2018-11-23T04:37:07.400Z,-1.80
2018-11-23T04:39:35.768Z,-1.80
2018-11-23T04:42:04.143Z,-1.80
2018-11-23T04:44:32.510Z,-1.80
2018-11-23T04:47:00.849Z,-1.80
2018-11-23T04:49:29.294Z,-1.80
2018-11-23T04:51:57.676Z,-1.80
2018-11-23T04:54:26.065Z,-1.80
2018-11-23T04:56:54.474Z,-1.80
2018-11-23T04:59:22.833Z,-1.80
2018-11-23T05:01:51.202Z,-1.80
2018-11-23T05:04:19.561Z,-1.80
2018-11-23T05:06:47.907Z,-1.80
2018-11-23T05:09:16.281Z,-1.80
2018-11-23T05:11:44.628Z,-1.80
2018-11-23T05:14:12.968Z,-1.80
2018-11-23T05:16:41.303Z,-1.80
2018-11-23T05:19:09.648Z,-1.80
2018-11-23T05:21:38.000Z,-1.80
2018-11-23T05:24:06.351Z,-1.80
2018-11-23T05:26:34.688Z,-1.80
2018-11-23T05:29:03.091Z,-1.80
2018-11-23T05:31:31.454Z,-1.80
2018-11-23T05:33:59.821Z,-1.80
2018-11-23T05:36:28.389Z,-1.80
2018-11-23T05:38:56.725Z,-1.80
2018-11-23T05:41:25.091Z,-1.80
2018-11-23T05:43:53.487Z,-1.90
2018-11-23T05:46:21.843Z,-1.90
2018-11-23T05:48:50.203Z,-1.90
2018-11-23T05:51:18.555Z,-1.90
2018-11-23T05:53:46.935Z,-1.90
2018-11-23T05:56:15.310Z,-1.90
2018-11-23T05:58:43.666Z,-1.90
2018-11-23T06:01:11.993Z,-1.90
2018-11-23T06:03:40.342Z,-1.90
2018-11-23T06:06:08.871Z,-1.90
2018-11-23T06:08:37.245Z,-1.90
2018-11-23T06:11:05.991Z,-1.90
2018-11-23T06:13:34.343Z,-1.90
2018-11-23T06:16:02.681Z,-2.00
2018-11-23T06:18:31.058Z,-1.90
2018-11-23T06:20:59.425Z,-1.90
2018-11-23T06:23:27.799Z,-1.90
2018-11-23T06:26:15.369Z,-1.90
2018-11-23T06:28:43.739Z,-1.90
2018-11-23T06:31:12.405Z,-1.90
2018-11-23T06:33:43.253Z,-1.90
2018-11-23T06:36:11.633Z,-1.90
2018-11-23T06:38:40.019Z,-1.90
2018-11-23T06:41:10.484Z,-1.90
2018-11-23T06:43:37.463Z,-1.90
2018-11-23T06:46:07.770Z,-1.80
2018-11-23T06:48:36.103Z,-1.80
2018-11-23T06:51:04.809Z,-1.80
2018-11-23T06:53:33.157Z,-1.80
2018-11-23T06:56:01.881Z,-1.80
2018-11-23T06:58:30.210Z,-1.80
2018-11-23T07:00:58.559Z,-1.70
2018-11-23T07:03:27.235Z,-1.80
2018-11-23T07:05:56.075Z,-1.80
2018-11-23T07:08:24.804Z,-1.80
2018-11-23T07:10:53.430Z,-1.80
2018-11-23T07:13:21.759Z,-1.80
2018-11-23T07:15:50.078Z,-1.80
2018-11-23T07:18:18.420Z,-1.80
2018-11-23T07:20:46.733Z,-1.80
2018-11-23T07:23:15.128Z,-1.80
2018-11-23T07:25:43.468Z,-1.80
2018-11-23T07:28:15.639Z,-1.80
2018-11-23T07:30:40.190Z,-1.80
2018-11-23T07:33:08.529Z,-1.80
2018-11-23T07:35:36.900Z,-1.70
2018-11-23T07:38:05.518Z,-1.70
2018-11-23T07:40:46.636Z,-1.60
2018-11-23T07:43:14.974Z,-1.60
2018-11-23T07:45:43.304Z,-1.60
2018-11-23T07:48:11.718Z,-1.50
2018-11-23T07:50:40.234Z,-1.50
2018-11-23T07:53:08.903Z,-1.50
2018-11-23T07:55:37.306Z,-1.40
2018-11-23T07:58:07.141Z,-1.30
2018-11-23T08:00:35.488Z,-1.30
2018-11-23T08:03:04.039Z,-1.30
2018-11-23T08:05:32.401Z,-1.20
2018-11-23T08:08:00.728Z,-1.20
2018-11-23T08:10:28.297Z,-1.20
2018-11-23T08:12:56.653Z,-1.20
2018-11-23T08:15:26.368Z,-1.10
2018-11-23T08:17:54.742Z,-1.10
2018-11-23T08:20:24.172Z,-1.00
2018-11-23T08:22:52.533Z,-1.00
2018-11-23T08:25:21.977Z,-0.90
2018-11-23T08:27:51.397Z,-0.90
2018-11-23T08:30:21.484Z,-0.80
2018-11-23T08:32:49.863Z,-0.80
2018-11-23T08:35:18.243Z,-0.70
2018-11-23T08:37:46.599Z,-0.60
2018-11-23T08:40:17.952Z,-0.60
2018-11-23T08:42:47.178Z,-0.50
2018-11-23T08:45:16.857Z,-0.40
2018-11-23T08:47:45.206Z,-0.30
2018-11-23T08:50:18.148Z,-0.20
2018-11-23T08:52:46.482Z,-0.20
2018-11-23T08:55:15.609Z,-0.10
2018-11-23T08:57:43.967Z,0.00
2018-11-23T09:00:17.082Z,0.00
2018-11-23T09:02:46.693Z,0.10
2018-11-23T09:05:15.588Z,0.20
2018-11-23T09:07:44.980Z,0.30
2018-11-23T09:10:15.442Z,0.40
2018-11-23T09:12:45.072Z,0.50
2018-11-23T09:15:14.303Z,0.60
2018-11-23T09:17:43.422Z,0.70
2018-11-23T09:20:12.605Z,0.80
2018-11-23T09:22:41.000Z,0.90
2018-11-23T09:25:12.131Z,1.00
2018-11-23T09:27:40.500Z,1.10
2018-11-23T09:30:15.557Z,1.20
2018-11-23T09:32:44.118Z,1.30
2018-11-23T09:35:12.502Z,1.40
2018-11-23T09:37:41.393Z,1.40
2018-11-23T09:40:12.476Z,1.50
2018-11-23T09:42:41.058Z,1.70
2018-11-23T09:45:11.434Z,1.80
2018-11-23T09:47:39.768Z,1.90
2018-11-23T09:50:10.551Z,2.10
2018-11-23T09:52:39.000Z,2.20
2018-11-23T09:55:08.025Z,2.40
2018-11-23T09:57:36.479Z,2.50
2018-11-23T10:00:08.238Z,2.70
2018-11-23T10:02:36.584Z,2.80
2018-11-23T10:05:05.602Z,3.00
2018-11-23T10:07:33.879Z,3.10
2018-11-23T10:10:02.223Z,3.30
2018-11-23T10:12:30.568Z,3.50
2018-11-23T10:14:58.894Z,3.70
2018-11-23T10:17:27.228Z,3.90
2018-11-23T10:19:58.179Z,4.00
2018-11-23T10:22:24.028Z,4.10
2018-11-23T10:24:52.346Z,4.20
2018-11-23T10:27:20.686Z,4.30
2018-11-23T10:29:51.842Z,4.40
2018-11-23T10:32:17.369Z,4.40
2018-11-23T10:34:45.701Z,4.60
2018-11-23T10:37:14.062Z,4.80
2018-11-23T10:39:42.416Z,4.90
2018-11-23T10:42:10.776Z,5.10
2018-11-23T10:44:39.151Z,5.20
2018-11-23T10:47:07.532Z,5.20
2018-11-23T10:49:35.875Z,5.40
2018-11-23T10:52:04.300Z,5.50
2018-11-23T10:54:32.632Z,5.60
2018-11-23T10:57:01.048Z,5.80
2018-11-23T10:59:29.322Z,5.70
2018-11-23T11:02:02.792Z,5.60
2018-11-23T11:04:36.441Z,5.40
2018-11-23T11:07:08.205Z,5.30
2018-11-23T11:09:37.007Z,5.30
2018-11-23T11:12:05.459Z,5.40
2018-11-23T11:14:33.795Z,5.60
2018-11-23T11:17:02.153Z,5.80
2018-11-23T11:19:30.518Z,6.00
2018-11-23T11:21:58.915Z,6.10
2018-11-23T11:24:27.268Z,6.30
2018-11-23T11:26:55.751Z,6.50
2018-11-23T11:29:24.072Z,6.60
2018-11-23T11:31:52.504Z,6.60
2018-11-23T11:34:20.840Z,6.70
2018-11-23T11:36:49.177Z,6.80
2018-11-23T11:39:18.225Z,6.90
2018-11-23T11:41:45.888Z,7.00
2018-11-23T11:44:14.229Z,7.10
2018-11-23T11:46:42.571Z,7.30
2018-11-23T11:49:10.885Z,7.40
2018-11-23T11:51:39.223Z,7.50
2018-11-23T11:54:07.579Z,7.70
2018-11-23T11:56:35.896Z,7.80
2018-11-23T11:59:04.222Z,7.80
2018-11-23T12:01:32.538Z,7.90
2018-11-23T12:04:00.871Z,7.90
2018-11-23T12:06:29.207Z,7.90
2018-11-23T12:08:57.535Z,8.00
2018-11-23T12:11:25.875Z,8.10
2018-11-23T12:13:54.218Z,8.20
2018-11-23T12:16:22.552Z,8.20
2018-11-23T12:18:50.919Z,8.20
2018-11-23T12:21:19.233Z,8.10
2018-11-23T12:23:47.593Z,8.00
2018-11-23T12:26:15.925Z,8.00
2018-11-23T12:28:44.265Z,8.10
2018-11-23T12:31:12.834Z,8.20
2018-11-23T12:33:41.158Z,8.20
2018-11-23T12:36:09.482Z,8.20
2018-11-23T12:38:42.823Z,8.20
2018-11-23T12:41:06.492Z,8.10
2018-11-23T12:43:34.877Z,8.10
2018-11-23T12:46:03.259Z,8.10
2018-11-23T12:48:31.626Z,8.20
2018-11-23T12:51:00.016Z,8.20
2018-11-23T12:53:28.362Z,8.20
2018-11-23T12:55:56.736Z,8.20
2018-11-23T12:58:25.247Z,8.20
2018-11-23T13:00:53.659Z,8.20
2018-11-23T13:03:21.978Z,8.30
2018-11-23T13:05:50.350Z,8.30
2018-11-23T13:08:18.672Z,8.30
2018-11-23T13:10:47.007Z,8.30
2018-11-23T13:13:15.406Z,8.40
2018-11-23T13:15:43.757Z,8.60
2018-11-23T13:18:12.073Z,8.50
2018-11-23T13:20:40.401Z,8.50
2018-11-23T13:23:08.759Z,8.50
2018-11-23T13:25:37.096Z,8.60
2018-11-23T13:28:05.721Z,8.60
2018-11-23T13:30:35.335Z,8.70
2018-11-23T13:33:03.731Z,8.80
2018-11-23T13:35:32.099Z,8.80
2018-11-23T13:38:00.505Z,8.80
2018-11-23T13:40:29.461Z,8.80
2018-11-23T13:42:58.754Z,8.60
2018-11-23T13:45:28.674Z,8.50
2018-11-23T13:47:57.029Z,8.40
2018-11-23T13:50:26.143Z,8.30
2018-11-23T13:52:56.159Z,8.10
2018-11-23T13:55:24.517Z,7.90
2018-11-23T13:57:53.158Z,7.80
2018-11-23T14:00:23.864Z,7.60
2018-11-23T14:02:52.189Z,7.60
2018-11-23T14:05:21.928Z,7.50
2018-11-23T14:07:51.609Z,7.50
2018-11-23T14:10:21.280Z,7.30
2018-11-23T14:12:49.664Z,7.20
2018-11-23T14:15:19.459Z,7.10
2018-11-23T14:17:48.738Z,7.00
2018-11-23T14:20:17.849Z,6.90
2018-11-23T14:22:46.226Z,6.70
2018-11-23T14:25:16.754Z,6.60
2018-11-23T14:27:45.651Z,6.50
2018-11-23T14:30:16.282Z,6.50
2018-11-23T14:32:44.736Z,6.40
2018-11-23T14:35:14.562Z,6.30
2018-11-23T14:37:43.630Z,6.20
2018-11-23T14:40:12.597Z,6.20
2018-11-23T14:42:42.065Z,6.10
2018-11-23T14:45:20.163Z,6.10
2018-11-23T14:47:49.176Z,6.10
2018-11-23T14:50:23.688Z,6.00
2018-11-23T14:52:53.068Z,6.00
2018-11-23T14:55:21.674Z,5.90
2018-11-23T14:57:50.341Z,5.90
2018-11-23T15:00:25.213Z,5.90
2018-11-23T15:02:54.797Z,5.80
2018-11-23T15:05:23.166Z,5.80
2018-11-23T15:07:51.547Z,5.80
2018-11-23T15:10:22.183Z,5.70
2018-11-23T15:12:51.811Z,5.80
2018-11-23T15:15:21.621Z,5.70
2018-11-23T15:17:50.799Z,5.70
2018-11-23T15:20:20.781Z,5.60
2018-11-23T15:22:50.822Z,5.60
2018-11-23T15:25:19.177Z,5.60
2018-11-23T15:27:47.604Z,5.50
2018-11-23T15:30:18.568Z,5.50
2018-11-23T15:32:46.954Z,5.50
2018-11-23T15:35:15.907Z,5.50
2018-11-23T15:37:44.322Z,5.40
2018-11-23T15:40:15.339Z,5.40
2018-11-23T15:42:44.016Z,5.30
2018-11-23T15:45:15.300Z,5.30
2018-11-23T15:47:43.758Z,5.30
2018-11-23T15:50:14.728Z,5.20
2018-11-23T15:52:43.402Z,5.20
2018-11-23T15:55:14.599Z,5.10
2018-11-23T15:57:43.702Z,5.10
2018-11-23T16:00:20.677Z,5.00
2018-11-23T16:02:49.411Z,4.90
2018-11-23T16:05:18.161Z,4.90
2018-11-23T16:07:46.916Z,4.80
2018-11-23T16:10:18.718Z,4.80
2018-11-23T16:12:49.009Z,4.70
2018-11-23T16:15:18.117Z,4.70
2018-11-23T16:17:46.808Z,4.60
2018-11-23T16:20:18.257Z,4.50
2018-11-23T16:22:47.827Z,4.50
2018-11-23T16:25:16.195Z,4.40
2018-11-23T16:27:45.961Z,4.40
2018-11-23T16:30:19.677Z,4.40
2018-11-23T16:32:49.287Z,4.40
2018-11-23T16:35:19.040Z,4.40
2018-11-23T16:37:47.481Z,4.40
2018-11-23T16:40:17.369Z,4.40
2018-11-23T16:42:45.738Z,4.30
2018-11-23T16:45:17.332Z,4.30
2018-11-23T16:47:46.287Z,4.30
2018-11-23T16:50:14.913Z,4.30
2018-11-23T16:52:44.683Z,4.30
2018-11-23T16:55:14.002Z,4.30
2018-11-23T16:57:43.624Z,4.30
2018-11-23T17:00:14.641Z,4.30
2018-11-23T17:02:43.342Z,4.30
2018-11-23T17:05:12.723Z,4.30
2018-11-23T17:07:41.180Z,4.30
2018-11-23T17:10:11.641Z,4.30
2018-11-23T17:12:40.787Z,4.20
2018-11-23T17:15:11.177Z,4.20
2018-11-23T17:17:39.500Z,4.30
2018-11-23T17:20:09.987Z,4.30
2018-11-23T17:22:38.358Z,4.30
2018-11-23T17:25:08.320Z,4.30
2018-11-23T17:27:36.704Z,4.30
2018-11-23T17:30:05.942Z,4.30
2018-11-23T17:32:34.292Z,4.20
2018-11-23T17:35:02.654Z,4.20
2018-11-23T17:37:31.023Z,4.20
2018-11-23T17:39:59.367Z,4.20
2018-11-23T17:42:27.724Z,4.20
2018-11-23T17:44:56.114Z,4.10
2018-11-23T17:47:24.446Z,4.10
2018-11-23T17:49:52.810Z,4.10
2018-11-23T17:52:21.186Z,4.00
2018-11-23T17:54:49.549Z,4.00
2018-11-23T17:57:17.896Z,4.00
2018-11-23T17:59:47.471Z,4.00
2018-11-23T18:02:18.291Z,4.00
2018-11-23T18:04:46.612Z,3.90
2018-11-23T18:07:15.008Z,3.90
2018-11-23T18:09:43.615Z,3.90
2018-11-23T18:12:11.971Z,3.90
2018-11-23T18:14:40.333Z,3.90
2018-11-23T18:17:08.682Z,3.80
2018-11-23T18:19:37.054Z,3.80
2018-11-23T18:22:05.467Z,3.80
2018-11-23T18:24:33.881Z,3.80
2018-11-23T18:27:02.298Z,3.80
2018-11-23T18:29:30.687Z,3.80
2018-11-23T18:31:59.033Z,3.80
2018-11-23T18:34:27.396Z,3.80
2018-11-23T18:36:55.768Z,3.70
2018-11-23T18:39:24.091Z,3.70
2018-11-23T18:41:52.405Z,3.60
2018-11-23T18:44:20.770Z,3.60
2018-11-23T18:46:49.120Z,3.70
2018-11-23T18:49:17.459Z,3.70
2018-11-23T18:51:46.074Z,3.60
2018-11-23T18:54:15.017Z,3.60
2018-11-23T18:56:43.381Z,3.60
2018-11-23T18:59:11.771Z,3.60
2018-11-23T19:01:40.151Z,3.60
2018-11-23T19:04:08.484Z,3.60
2018-11-23T19:06:36.869Z,3.60
2018-11-23T19:09:08.695Z,3.60
2018-11-23T19:11:37.089Z,3.60
2018-11-23T19:14:06.294Z,3.60
2018-11-23T19:16:34.662Z,3.60
2018-11-23T19:19:03.035Z,3.60
2018-11-23T19:21:31.447Z,3.60
2018-11-23T19:23:59.822Z,3.60
2018-11-23T19:26:28.186Z,3.60
2018-11-23T19:28:56.556Z,3.60
2018-11-23T19:31:31.648Z,3.50
2018-11-23T19:34:00.001Z,3.50
2018-11-23T19:36:28.333Z,3.50
2018-11-23T19:38:56.706Z,3.50
2018-11-23T19:41:25.095Z,3.50
2018-11-23T19:43:53.446Z,3.50
2018-11-23T19:46:21.819Z,3.40
2018-11-23T19:48:50.141Z,3.40
2018-11-23T19:51:18.511Z,3.40
2018-11-23T19:53:46.860Z,3.40
2018-11-23T19:56:15.204Z,3.40
2018-11-23T19:58:43.541Z,3.40
2018-11-23T20:01:11.898Z,3.40
2018-11-23T20:03:40.271Z,3.40
2018-11-23T20:06:08.671Z,3.40
2018-11-23T20:08:37.029Z,3.30
2018-11-23T20:11:05.428Z,3.40
2018-11-23T20:13:33.761Z,3.30
2018-11-23T20:16:02.129Z,3.30
2018-11-23T20:18:30.492Z,3.30
2018-11-23T20:20:58.877Z,3.30
2018-11-23T20:23:27.369Z,3.30
2018-11-23T20:25:55.764Z,3.30
2018-11-23T20:28:24.167Z,3.30
2018-11-23T20:30:52.553Z,3.30
2018-11-23T20:33:20.957Z,3.30
2018-11-23T20:35:49.428Z,3.20
2018-11-23T20:38:17.832Z,3.20
2018-11-23T20:40:46.191Z,3.20
2018-11-23T20:43:14.593Z,3.20
2018-11-23T20:45:42.936Z,3.20
2018-11-23T20:48:11.290Z,3.20
2018-11-23T20:50:39.656Z,3.20
2018-11-23T20:53:08.040Z,3.20
2018-11-23T20:55:36.434Z,3.10
2018-11-23T20:58:04.920Z,3.10
2018-11-23T21:00:33.295Z,3.10
2018-11-23T21:03:01.667Z,3.10
2018-11-23T21:05:30.012Z,3.10
2018-11-23T21:07:58.377Z,3.10
2018-11-23T21:10:26.783Z,3.10
2018-11-23T21:12:55.586Z,3.10
2018-11-23T21:15:27.850Z,3.10
2018-11-23T21:17:57.087Z,3.10
2018-11-23T21:20:25.499Z,3.10
2018-11-23T21:22:53.937Z,3.00
2018-11-23T21:25:22.306Z,3.00
2018-11-23T21:27:50.732Z,3.00
2018-11-23T21:30:21.150Z,3.00
2018-11-23T21:32:50.256Z,3.00
2018-11-23T21:35:18.733Z,3.00
2018-11-23T21:37:47.101Z,3.00
2018-11-23T21:40:16.140Z,3.00
2018-11-23T21:42:44.486Z,3.00
2018-11-23T21:45:14.019Z,3.00
2018-11-23T21:47:42.346Z,2.90
2018-11-23T21:50:12.700Z,2.90
2018-11-23T21:52:41.084Z,3.00
2018-11-23T21:55:11.775Z,2.90
2018-11-23T21:57:40.186Z,2.90
2018-11-23T22:00:11.962Z,2.90
2018-11-23T22:02:40.357Z,2.80
2018-11-23T22:05:09.012Z,2.80
2018-11-23T22:07:37.416Z,2.80
2018-11-23T22:10:15.668Z,2.70
2018-11-23T22:12:44.102Z,2.70
2018-11-23T22:15:15.660Z,2.60
2018-11-23T22:17:43.978Z,2.60
2018-11-23T22:20:13.431Z,2.60
2018-11-23T22:22:41.830Z,2.60
2018-11-23T22:25:11.461Z,2.50
2018-11-23T22:27:39.892Z,2.50
2018-11-23T22:30:25.444Z,2.50
2018-11-23T22:32:53.853Z,2.50
2018-11-23T22:35:22.174Z,2.50
2018-11-23T22:37:50.526Z,2.50
2018-11-23T22:40:19.936Z,2.50
2018-11-23T22:42:49.269Z,2.40
2018-11-23T22:45:17.883Z,2.40
2018-11-23T22:47:46.252Z,2.40
2018-11-23T22:50:19.667Z,2.50
2018-11-23T22:52:48.079Z,2.50
2018-11-23T22:55:17.125Z,2.50
2018-11-23T22:57:45.482Z,2.50
2018-11-23T23:00:24.975Z,2.50
2018-11-23T23:02:53.407Z,2.50
2018-11-23T23:05:22.907Z,2.50
2018-11-23T23:07:51.297Z,2.60
2018-11-23T23:10:19.698Z,2.60
2018-11-23T23:12:48.097Z,2.60
2018-11-23T23:15:16.726Z,2.60
2018-11-23T23:17:45.217Z,2.60
2018-11-23T23:20:14.604Z,2.60
2018-11-23T23:22:43.076Z,2.60
2018-11-23T23:25:11.992Z,2.60
2018-11-23T23:27:41.222Z,2.60
2018-11-23T23:30:13.601Z,2.60
2018-11-23T23:32:42.006Z,2.60
2018-11-23T23:35:11.366Z,2.60
2018-11-23T23:37:39.953Z,2.60
2018-11-23T23:40:09.634Z,2.60
2018-11-23T23:42:38.005Z,2.60
2018-11-23T23:45:09.491Z,2.60
2018-11-23T23:47:37.914Z,2.60
2018-11-23T23:50:15.660Z,2.60
2018-11-23T23:52:44.052Z,2.70
2018-11-23T23:55:12.442Z,2.70
2018-11-23T23:57:41.807Z,2.70
